Time;durP1;ratioP1;P1;durP2;ratioP2;P2;SDS_P1;SDS_P2;PMS_P1;PMS_P2;Temp;Humidity;BMP_temperature;BMP_pressure;BME280_temperature;BME280_humidity;BME280_pressure;Samples;Min_cycle;Max_cycle;Signal;HPM_P1;HPM_P2
2023/04/14 00:00:35;;;;;;;19.17;6.57;;;;;;;7.44;100.00;100487.72;5060172;28;20063;-76
2023/04/14 00:03:02;;;;;;;22.15;5.78;;;;;;;7.40;100.00;100483.34;5057912;28;20078;-74
2023/04/14 00:05:30;;;;;;;16.35;5.30;;;;;;;7.34;100.00;100480.16;5066609;28;20233;-75
2023/04/14 00:07:57;;;;;;;16.70;5.90;;;;;;;7.30;100.00;100482.06;5064034;28;20511;-78
2023/04/14 00:10:23;;;;;;;16.92;6.25;;;;;;;7.25;100.00;100479.69;5058852;28;20183;-75
2023/04/14 00:12:50;;;;;;;20.63;5.78;;;;;;;7.21;100.00;100481.59;5059516;28;20052;-75
2023/04/14 00:15:17;;;;;;;15.98;4.97;;;;;;;7.20;100.00;100482.78;5061880;28;20467;-76
2023/04/14 00:17:44;;;;;;;18.08;6.22;;;;;;;7.17;100.00;100491.00;5061292;28;20063;-76
2023/04/14 00:20:10;;;;;;;17.92;5.55;;;;;;;7.11;100.00;100489.75;5061815;28;20511;-75
2023/04/14 00:22:37;;;;;;;18.92;6.18;;;;;;;7.07;100.00;100497.19;5056801;28;20048;-77
2023/04/14 00:25:04;;;;;;;19.98;6.15;;;;;;;7.03;100.00;100497.19;5060261;28;20543;-75
2023/04/14 00:27:30;;;;;;;21.42;9.13;;;;;;;7.02;100.00;100503.06;5055897;28;20049;-74
2023/04/14 00:29:57;;;;;;;22.17;7.55;;;;;;;7.00;100.00;100508.13;5061903;28;20049;-75
2023/04/14 00:32:24;;;;;;;21.48;6.93;;;;;;;6.95;100.00;100508.50;5054537;28;20044;-76
2023/04/14 00:34:50;;;;;;;17.02;6.38;;;;;;;6.90;100.00;100504.13;5061557;28;20080;-76
2023/04/14 00:37:17;;;;;;;14.73;5.13;;;;;;;6.86;100.00;100494.25;5058958;28;20048;-74
2023/04/14 00:39:43;;;;;;;16.10;4.88;;;;;;;6.81;100.00;100498.13;5059933;28;20045;-76
2023/04/14 00:42:10;;;;;;;13.60;4.80;;;;;;;6.81;100.00;100503.63;5057495;28;20079;-76
2023/04/14 00:44:36;;;;;;;13.25;4.50;;;;;;;6.77;100.00;100507.50;5056844;28;20135;-75
2023/04/14 00:47:04;;;;;;;15.60;5.47;;;;;;;6.74;100.00;100509.03;5054682;28;20367;-76
2023/04/14 00:49:31;;;;;;;11.77;4.85;;;;;;;6.67;100.00;100508.16;5062524;28;20056;-74
2023/04/14 00:51:58;;;;;;;18.75;4.65;;;;;;;6.67;100.00;100510.91;5060658;28;20511;-75
2023/04/14 00:54:25;;;;;;;15.60;5.07;;;;;;;6.65;100.00;100518.75;5058887;28;20139;-76
2023/04/14 00:56:52;;;;;;;13.82;4.90;;;;;;;6.63;100.00;100515.59;5059142;28;20522;-75
2023/04/14 00:59:19;;;;;;;13.82;4.88;;;;;;;6.59;100.00;100512.00;5062616;28;20058;-75
2023/04/14 01:01:46;;;;;;;12.30;4.40;;;;;;;6.51;100.00;100513.09;5060223;28;20499;-77
2023/04/14 01:04:14;;;;;;;19.50;5.18;;;;;;;6.45;100.00;100509.88;5059668;28;20053;-76
2023/04/14 01:06:41;;;;;;;15.60;5.05;;;;;;;6.47;100.00;100521.28;5062046;28;20059;-76
2023/04/14 01:09:08;;;;;;;19.80;5.57;;;;;;;6.43;100.00;100519.66;5059345;28;20152;-76
2023/04/14 01:11:44;;;;;;;18.13;4.78;;;;;;;6.43;100.00;100533.41;5058371;28;20048;-75
2023/04/14 01:14:49;;;;;;;10.25;4.47;;;;;;;6.36;100.00;100528.63;5065243;28;20063;-78
2023/04/14 01:17:21;;;;;;;10.85;4.53;;;;;;;6.34;100.00;100524.66;5069676;28;20131;-75
2023/04/14 01:20:19;;;;;;;13.48;4.97;;;;;;;6.34;100.00;100530.16;5067779;28;20036;-75
2023/04/14 01:22:54;;;;;;;13.88;4.50;;;;;;;6.31;100.00;100534.44;5066924;28;20067;-74
2023/04/14 01:26:09;;;;;;;16.02;5.07;;;;;;;6.22;100.00;100531.19;5062073;28;20051;-76
2023/04/14 01:29:33;;;;;;;14.38;4.43;;;;;;;6.23;100.00;100537.44;5058447;28;20049;-75
2023/04/14 01:32:04;;;;;;;14.25;4.72;;;;;;;6.22;100.00;100544.94;5005431;28;20054;-76
2023/04/14 01:34:49;;;;;;;14.30;4.90;;;;;;;6.22;100.00;100544.94;5027458;28;20053;-74
2023/04/14 01:37:20;;;;;;;15.95;5.45;;;;;;;6.22;100.00;100544.13;5027810;28;20077;-74
2023/04/14 01:39:53;;;;;;;15.20;5.40;;;;;;;6.23;100.00;100540.19;5009913;28;20140;-76
2023/04/14 01:42:24;;;;;;;14.68;5.47;;;;;;;6.20;100.00;100549.19;5026127;28;20061;-74
2023/04/14 01:44:55;;;;;;;17.77;5.68;;;;;;;6.16;100.00;100545.59;5027090;28;20053;-77
2023/04/14 01:47:25;;;;;;;20.38;5.57;;;;;;;6.16;100.00;100543.66;5026486;28;20055;-76
2023/04/14 01:49:52;;;;;;;18.95;6.65;;;;;;;6.19;100.00;100553.91;5024298;28;20191;-76
2023/04/14 01:52:20;;;;;;;15.75;5.55;;;;;;;6.18;100.00;100540.53;5025613;28;20119;-76
2023/04/14 01:54:50;;;;;;;15.00;5.15;;;;;;;6.17;100.00;100539.75;5026855;28;20065;-75
2023/04/14 01:57:21;;;;;;;16.35;4.95;;;;;;;6.15;100.00;100549.53;5026994;28;20542;-74
2023/04/14 01:59:50;;;;;;;17.48;5.55;;;;;;;6.10;100.00;100549.81;5009813;28;20107;-75
2023/04/14 02:02:19;;;;;;;16.27;5.03;;;;;;;6.10;100.00;100552.56;5037453;28;20418;-74
2023/04/14 02:04:48;;;;;;;16.15;6.15;;;;;;;6.08;100.00;100547.47;5065477;28;20136;-76
2023/04/14 02:07:16;;;;;;;19.15;5.88;;;;;;;6.13;100.00;100554.59;5061624;28;20053;-77
2023/04/14 02:09:44;;;;;;;17.75;5.47;;;;;;;6.10;100.00;100553.38;5059422;28;20064;-75
2023/04/14 02:12:11;;;;;;;13.57;4.65;;;;;;;6.12;100.00;100539.28;5060367;28;20055;-74
2023/04/14 02:14:40;;;;;;;14.85;5.38;;;;;;;6.13;100.00;100546.34;5059868;28;20678;-74
2023/04/14 02:17:10;;;;;;;13.93;5.15;;;;;;;6.15;100.00;100544.84;5064042;28;20414;-74
2023/04/14 02:19:38;;;;;;;15.63;5.40;;;;;;;6.15;100.00;100544.84;5065857;28;20059;-75
2023/04/14 02:22:04;;;;;;;20.10;6.47;;;;;;;6.16;100.00;100546.41;5059928;28;20071;-75
2023/04/14 02:24:31;;;;;;;18.52;5.00;;;;;;;6.17;100.00;100541.72;5067795;28;20052;-75
2023/04/14 02:27:06;;;;;;;23.38;5.60;;;;;;;6.16;100.00;100538.16;5067446;28;20076;-74
2023/04/14 02:29:34;;;;;;;18.42;5.20;;;;;;;6.15;100.00;100546.78;5057825;28;20059;-74
2023/04/14 02:32:10;;;;;;;14.95;5.03;;;;;;;6.13;100.00;100549.88;5068144;28;20094;-75
2023/04/14 02:34:54;;;;;;;16.92;5.72;;;;;;;6.10;100.00;100555.31;5062187;28;20055;-75
2023/04/14 02:37:26;;;;;;;16.70;5.20;;;;;;;6.12;100.00;100561.25;5064894;28;20082;-74
2023/04/14 02:39:58;;;;;;;18.88;5.65;;;;;;;6.14;100.00;100558.94;5066279;28;20048;-76
2023/04/14 02:42:26;;;;;;;21.92;5.38;;;;;;;6.15;100.00;100558.56;5068779;28;20045;-72
2023/04/14 02:45:21;;;;;;;17.40;6.47;;;;;;;6.15;100.00;100552.28;5058608;28;20083;-74
2023/04/14 02:47:53;;;;;;;21.25;6.07;;;;;;;6.17;100.00;100555.44;5058849;28;20048;-75
2023/04/14 02:50:21;;;;;;;19.27;5.78;;;;;;;6.15;100.00;100555.00;5056958;28;20056;-75
2023/04/14 02:52:50;;;;;;;20.35;5.45;;;;;;;6.13;100.00;100558.13;5063506;28;20044;-73
2023/04/14 02:55:21;;;;;;;19.38;5.38;;;;;;;6.12;100.00;100553.00;5065182;28;20044;-76
2023/04/14 02:57:50;;;;;;;15.98;4.78;;;;;;;6.13;100.00;100563.63;5062489;28;20045;-75
2023/04/14 03:00:17;;;;;;;14.68;5.60;;;;;;;6.10;100.00;100560.81;5059923;28;20487;-75
2023/04/14 03:02:45;;;;;;;15.73;5.30;;;;;;;6.08;100.00;100558.47;5059270;28;20114;-78
2023/04/14 03:05:13;;;;;;;20.23;5.53;;;;;;;6.11;100.00;100567.91;5064049;28;20561;-75
2023/04/14 03:07:42;;;;;;;20.13;6.10;;;;;;;6.11;100.00;100574.19;5067129;28;20048;-75
2023/04/14 03:10:13;;;;;;;22.15;6.10;;;;;;;6.12;100.00;100575.78;5061717;28;20036;-77
2023/04/14 03:12:41;;;;;;;18.60;6.53;;;;;;;6.09;100.00;100578.47;5060103;28;20143;-75
2023/04/14 03:15:09;;;;;;;20.05;6.15;;;;;;;6.09;100.00;100575.72;5059545;28;20048;-77
2023/04/14 03:17:36;;;;;;;20.23;6.78;;;;;;;6.06;100.00;100571.75;5066366;28;20044;-77
2023/04/14 03:20:04;;;;;;;25.13;5.57;;;;;;;6.09;100.00;100578.47;5057895;28;20044;-77
2023/04/14 03:22:34;;;;;;;20.52;5.95;;;;;;;6.06;100.00;100568.22;5057397;28;20055;-77
2023/04/14 03:25:01;;;;;;;17.17;5.43;;;;;;;6.02;100.00;100561.88;5060806;28;20076;-74
2023/04/14 03:27:29;;;;;;;19.25;5.70;;;;;;;6.01;100.00;100566.56;5065070;28;20040;-74
2023/04/14 03:30:02;;;;;;;16.30;5.63;;;;;;;6.00;100.00;100569.72;5056875;28;20055;-75
2023/04/14 03:32:34;;;;;;;19.38;6.55;;;;;;;6.00;100.00;100575.22;5057910;28;20041;-74
2023/04/14 03:35:01;;;;;;;19.63;6.50;;;;;;;6.01;100.00;100569.31;5063390;28;20048;-76
2023/04/14 03:37:30;;;;;;;27.70;6.40;;;;;;;5.95;100.00;100564.53;5057651;28;20041;-74
2023/04/14 03:40:00;;;;;;;20.77;6.93;;;;;;;6.01;100.00;100576.78;5059380;28;20052;-75
2023/04/14 03:42:28;;;;;;;18.58;6.68;;;;;;;5.99;100.00;100579.09;5061546;28;20534;-75
2023/04/14 03:44:57;;;;;;;22.38;7.10;;;;;;;5.99;100.00;100581.84;5064637;28;20048;-76
2023/04/14 03:47:25;;;;;;;17.77;7.18;;;;;;;5.98;100.00;100580.28;5057331;28;20056;-77
2023/04/14 03:49:56;;;;;;;22.65;7.85;;;;;;;5.96;100.00;100582.59;5063242;28;20049;-77
2023/04/14 03:52:25;;;;;;;20.80;6.40;;;;;;;5.93;100.00;100584.13;5065866;28;20055;-77
2023/04/14 03:54:57;;;;;;;17.30;6.03;;;;;;;5.89;100.00;100586.03;5064678;28;20048;-76
2023/04/14 03:57:28;;;;;;;21.88;6.88;;;;;;;5.82;100.00;100583.16;5063766;28;20080;-77
2023/04/14 03:59:55;;;;;;;23.77;6.90;;;;;;;5.86;100.00;100585.97;5063299;28;20041;-78
2023/04/14 04:02:24;;;;;;;21.52;7.13;;;;;;;5.86;100.00;100584.00;5065472;28;20055;-77
2023/04/14 04:04:53;;;;;;;26.83;8.52;;;;;;;5.88;100.00;100589.94;5061148;28;20121;-74
2023/04/14 04:07:20;;;;;;;24.45;8.40;;;;;;;5.86;100.00;100591.44;5065836;28;20821;-74
2023/04/14 04:09:49;;;;;;;25.40;8.50;;;;;;;5.84;100.00;100602.03;5065399;28;20048;-76
2023/04/14 04:12:19;;;;;;;24.40;9.25;;;;;;;5.81;100.00;100605.47;5063481;28;20052;-74
2023/04/14 04:14:46;;;;;;;34.03;10.85;;;;;;;5.79;100.00;100605.84;5057402;28;20053;-74
2023/04/14 04:17:15;;;;;;;26.75;8.13;;;;;;;5.76;100.00;100598.34;5063980;28;20052;-74
2023/04/14 04:19:43;;;;;;;26.70;8.27;;;;;;;5.76;100.00;100605.75;5063702;28;20048;-75
2023/04/14 04:22:13;;;;;;;22.15;7.57;;;;;;;5.76;100.00;100603.00;5060013;28;20045;-75
2023/04/14 04:24:41;;;;;;;28.17;9.23;;;;;;;5.73;100.00;100599.06;5057613;28;20059;-75
2023/04/14 04:27:08;;;;;;;25.10;9.25;;;;;;;5.73;100.00;100598.28;5062071;28;20048;-72
2023/04/14 04:29:52;;;;;;;25.80;9.90;;;;;;;5.74;100.00;100602.63;5057961;28;20050;-75
2023/04/14 04:32:19;;;;;;;25.42;8.45;;;;;;;5.74;100.00;100608.09;5059701;28;20049;-78
2023/04/14 04:34:49;;;;;;;25.05;8.57;;;;;;;5.70;100.00;100608.03;5065621;28;20052;-74
2023/04/14 04:37:18;;;;;;;29.52;7.82;;;;;;;5.73;100.00;100606.53;5066589;28;20048;-77
2023/04/14 04:39:44;;;;;;;27.50;8.40;;;;;;;5.66;100.00;100598.94;5065693;28;20044;-75
2023/04/14 04:42:11;;;;;;;26.92;10.60;;;;;;;5.69;100.00;100600.97;5065151;28;20566;-76
2023/04/14 04:44:37;;;;;;;26.92;9.27;;;;;;;5.64;100.00;100605.97;5062191;28;20055;-75
2023/04/14 04:47:04;;;;;;;21.00;7.38;;;;;;;5.66;100.00;100600.88;5068171;28;20055;-77
2023/04/14 04:49:31;;;;;;;19.67;6.65;;;;;;;5.68;100.00;100598.59;5068994;28;20048;-73
2023/04/14 04:51:58;;;;;;;20.58;7.32;;;;;;;5.71;100.00;100595.09;5069004;28;20147;-76
2023/04/14 04:54:26;;;;;;;21.27;6.90;;;;;;;5.68;100.00;100596.66;5064965;28;20041;-74
2023/04/14 04:56:52;;;;;;;23.40;6.90;;;;;;;5.65;100.00;100597.38;5062046;28;20139;-77
2023/04/14 04:59:19;;;;;;;27.77;7.15;;;;;;;5.63;100.00;100598.91;5065981;28;20054;-77
2023/04/14 05:01:45;;;;;;;21.15;6.53;;;;;;;5.66;100.00;100609.13;5062582;28;20040;-77
2023/04/14 05:04:12;;;;;;;22.27;7.72;;;;;;;5.62;100.00;100600.03;5063469;28;20048;-77
2023/04/14 05:06:39;;;;;;;24.50;8.00;;;;;;;5.63;100.00;100607.91;5068309;28;20041;-73
2023/04/14 05:09:05;;;;;;;20.48;6.78;;;;;;;5.60;100.00;100608.63;5067618;28;20112;-75
2023/04/14 05:11:32;;;;;;;26.55;8.75;;;;;;;5.60;100.00;100614.13;5066997;28;20059;-75
2023/04/14 05:14:00;;;;;;;25.42;9.73;;;;;;;5.59;100.00;100609.00;5058681;28;20045;-75
2023/04/14 05:16:27;;;;;;;22.13;7.88;;;;;;;5.62;100.00;100611.03;5058708;28;20056;-75
2023/04/14 05:18:53;;;;;;;23.27;8.15;;;;;;;5.54;100.00;100615.63;5067379;28;20135;-74
2023/04/14 05:21:20;;;;;;;21.88;7.60;;;;;;;5.53;100.00;100618.72;5062650;28;20044;-73
2023/04/14 05:23:47;;;;;;;22.92;7.75;;;;;;;5.55;100.00;100624.63;5066850;28;20053;-76
2023/04/14 05:26:14;;;;;;;19.60;7.60;;;;;;;5.55;100.00;100616.41;5069250;28;20055;-74
2023/04/14 05:29:00;;;;;;;16.38;6.53;;;;;;;5.61;100.00;100629.47;5063851;28;20056;-75
2023/04/14 05:31:27;;;;;;;16.65;6.25;;;;;;;5.64;100.00;100631.47;5069232;28;20040;-75
2023/04/14 05:33:54;;;;;;;25.75;6.90;;;;;;;5.67;100.00;100629.94;5065780;28;20053;-76
2023/04/14 05:36:20;;;;;;;22.05;7.70;;;;;;;5.69;100.00;100627.59;5065110;28;20059;-75
2023/04/14 05:38:46;;;;;;;19.40;7.40;;;;;;;5.76;100.00;100635.97;5060814;28;20081;-76
2023/04/14 05:41:13;;;;;;;22.27;7.28;;;;;;;5.75;100.00;100632.44;5064099;28;20051;-75
2023/04/14 05:43:40;;;;;;;24.77;6.20;;;;;;;5.79;100.00;100627.00;5065734;28;20048;-75
2023/04/14 05:46:06;;;;;;;20.27;6.85;;;;;;;5.84;100.00;100632.22;5065464;28;20503;-74
2023/04/14 05:48:35;;;;;;;19.17;6.97;;;;;;;5.88;100.00;100628.38;5060502;28;20106;-78
2023/04/14 05:51:01;;;;;;;19.67;7.40;;;;;;;5.93;100.00;100632.75;5064130;28;20051;-74
2023/04/14 05:53:28;;;;;;;18.67;5.60;;;;;;;5.94;100.00;100626.88;5069502;28;20050;-75
2023/04/14 05:55:55;;;;;;;24.30;6.85;;;;;;;5.97;100.00;100634.41;5068054;28;20052;-74
2023/04/14 05:58:25;;;;;;;19.88;6.50;;;;;;;6.01;100.00;100631.72;5060736;28;20706;-74
2023/04/14 06:00:51;;;;;;;16.80;6.00;;;;;;;6.02;100.00;100631.34;5061287;28;20056;-77
2023/04/14 06:03:18;;;;;;;24.98;6.85;;;;;;;6.08;100.00;100637.31;5061507;28;20055;-74
2023/04/14 06:05:47;;;;;;;19.98;5.72;;;;;;;6.08;100.00;100638.13;5064941;28;20071;-74
2023/04/14 06:08:13;;;;;;;18.50;6.00;;;;;;;6.09;100.00;100642.44;5066849;28;20106;-74
2023/04/14 06:10:40;;;;;;;22.08;6.95;;;;;;;6.12;100.00;100635.41;5059545;28;20144;-77
2023/04/14 06:13:07;;;;;;;17.20;6.60;;;;;;;6.13;100.00;100632.31;5060695;28;20049;-75
2023/04/14 06:15:34;;;;;;;16.95;6.47;;;;;;;6.18;100.00;100626.47;5055278;28;20056;-75
2023/04/14 06:18:00;;;;;;;20.67;6.55;;;;;;;6.25;100.00;100623.88;5070933;28;20045;-74
2023/04/14 06:20:30;;;;;;;23.02;6.13;;;;;;;6.31;100.00;100622.34;5065552;28;20462;-76
2023/04/14 06:22:59;;;;;;;17.17;5.45;;;;;;;6.40;100.00;100624.84;5069038;28;20135;-77
2023/04/14 06:25:26;;;;;;;20.23;6.55;;;;;;;6.47;100.00;100620.25;5064999;28;20044;-74
2023/04/14 06:27:52;;;;;;;22.02;6.72;;;;;;;6.55;100.00;100621.91;5061877;28;20049;-75
2023/04/14 06:30:19;;;;;;;16.25;6.15;;;;;;;6.66;100.00;100602.81;5068958;28;20048;-74
2023/04/14 06:32:47;;;;;;;19.30;6.28;;;;;;;6.77;100.00;100607.28;5059201;28;20073;-72
2023/04/14 06:35:14;;;;;;;27.23;7.70;;;;;;;6.87;100.00;100601.13;5055745;28;20052;-75
2023/04/14 06:37:57;;;;;;;21.90;6.60;;;;;;;7.03;100.00;100603.66;5054843;28;20053;-76
2023/04/14 06:40:24;;;;;;;24.45;6.85;;;;;;;7.14;100.00;100601.81;5063376;28;20067;-75
2023/04/14 06:42:50;;;;;;;19.67;6.55;;;;;;;7.26;100.00;100601.56;5063052;28;20067;-74
2023/04/14 06:45:17;;;;;;;24.58;6.22;;;;;;;7.40;100.00;100602.47;5058452;28;20531;-76
2023/04/14 06:47:43;;;;;;;18.25;6.70;;;;;;;7.56;100.00;100599.50;5057636;28;20135;-75
2023/04/14 06:50:11;;;;;;;20.80;6.00;;;;;;;7.75;100.00;100611.06;5062559;28;20102;-75
2023/04/14 06:52:37;;;;;;;19.38;7.05;;;;;;;7.93;100.00;100602.94;5056959;28;20498;-75
2023/04/14 06:55:04;;;;;;;20.48;7.35;;;;;;;8.04;100.00;100601.06;5063842;28;20715;-75
2023/04/14 06:57:30;;;;;;;18.17;6.90;;;;;;;8.20;100.00;100612.56;5068771;28;20525;-75
2023/04/14 06:59:57;;;;;;;18.02;7.07;;;;;;;8.34;100.00;100609.97;5059067;28;20058;-79
2023/04/14 07:02:23;;;;;;;21.50;4.68;;;;;;;8.48;100.00;100612.81;5066922;28;20129;-74
2023/04/14 07:04:50;;;;;;;21.55;6.13;;;;;;;8.63;100.00;100613.66;5061360;28;20131;-76
2023/04/14 07:07:17;;;;;;;17.23;4.63;;;;;;;8.68;100.00;100611.34;5066343;28;20109;-76
2023/04/14 07:09:44;;;;;;;18.33;6.68;;;;;;;8.82;100.00;100608.63;5060110;28;20051;-76
2023/04/14 07:12:15;;;;;;;21.17;7.18;;;;;;;8.89;100.00;100596.81;5058707;28;20450;-77
2023/04/14 07:14:42;;;;;;;17.85;6.03;;;;;;;8.92;100.00;100599.63;5064428;28;20415;-75
2023/04/14 07:17:08;;;;;;;8.63;2.05;;;;;;;9.00;100.00;100605.94;5066188;28;20040;-73
2023/04/14 07:19:35;;;;;;;16.23;4.93;;;;;;;9.14;100.00;100598.50;5060906;28;20055;-77
2023/04/14 07:22:01;;;;;;;7.40;3.50;;;;;;;9.21;100.00;100598.50;5062304;28;20052;-76
2023/04/14 07:24:28;;;;;;;19.08;6.85;;;;;;;9.40;100.00;100600.94;5067108;28;20044;-77
2023/04/14 07:26:54;;;;;;;18.25;4.97;;;;;;;9.44;100.00;100598.94;5059589;28;20063;-76
2023/04/14 07:29:21;;;;;;;23.02;6.07;;;;;;;9.56;100.00;100600.56;5061710;28;20131;-77
2023/04/14 07:31:48;;;;;;;19.77;6.45;;;;;;;9.68;100.00;100598.19;5060878;28;20119;-75
2023/04/14 07:34:14;;;;;;;20.30;7.30;;;;;;;9.77;100.00;100597.78;5067879;28;20132;-76
2023/04/14 07:36:41;;;;;;;23.10;6.50;;;;;;;9.88;100.00;100593.06;5068359;28;20487;-76
2023/04/14 07:39:07;;;;;;;21.33;6.03;;;;;;;9.99;100.00;100591.88;5066450;28;20097;-76
2023/04/14 07:41:34;;;;;;;15.60;5.57;;;;;;;10.06;100.00;100589.13;5066221;28;20044;-75
2023/04/14 07:44:00;;;;;;;24.10;6.97;;;;;;;10.19;100.00;100579.22;5062871;28;20040;-76
2023/04/14 07:46:27;;;;;;;30.73;9.15;;;;;;;10.33;100.00;100583.97;5067939;28;20101;-76
2023/04/14 07:48:54;;;;;;;26.90;6.10;;;;;;;10.36;100.00;100583.94;5065950;28;20044;-74
2023/04/14 07:51:23;;;;;;;10.45;3.65;;;;;;;10.44;100.00;100576.41;5067784;28;20037;-76
2023/04/14 07:53:51;;;;;;;29.88;11.23;;;;;;;10.56;100.00;100589.03;5066528;28;20131;-76
2023/04/14 07:56:18;;;;;;;25.75;8.60;;;;;;;10.71;100.00;100587.78;5067798;28;20562;-74
2023/04/14 07:58:45;;;;;;;9.10;3.38;;;;;;;10.66;100.00;100586.22;5067124;28;20512;-77
2023/04/14 08:01:13;;;;;;;20.02;5.50;;;;;;;10.81;100.00;100595.25;5065186;28;20053;-78
2023/04/14 08:03:39;;;;;;;23.58;6.40;;;;;;;10.90;100.00;100590.09;5067349;28;20044;-77
2023/04/14 08:06:10;;;;;;;16.50;4.45;;;;;;;10.98;100.00;100591.63;5065536;28;20102;-76
2023/04/14 08:08:38;;;;;;;16.38;4.63;;;;;;;11.07;100.00;100589.22;5058006;28;20048;-76
2023/04/14 08:11:05;;;;;;;18.88;6.60;;;;;;;11.25;100.00;100590.69;5061390;28;20044;-76
2023/04/14 08:13:31;;;;;;;20.25;5.40;;;;;;;11.39;100.00;100587.03;5063242;28;20144;-81
2023/04/14 08:15:58;;;;;;;19.60;5.32;;;;;;;11.42;100.00;100589.00;5061089;28;20384;-76
2023/04/14 08:18:24;;;;;;;21.17;4.55;;;;;;;11.56;100.00;100588.91;5060725;28;20043;-76
2023/04/14 08:20:51;;;;;;;20.33;4.45;;;;;;;11.62;100.00;100588.09;5077097;28;20044;-74
2023/04/14 08:23:17;;;;;;;18.15;4.68;;;;;;;11.73;100.00;100591.56;5068103;28;20045;-75
2023/04/14 08:25:44;;;;;;;14.13;3.53;;;;;;;11.83;100.00;100578.81;5063775;28;20540;-75
2023/04/14 08:28:11;;;;;;;12.75;3.10;;;;;;;11.93;100.00;100589.81;5062834;28;20147;-74
2023/04/14 08:30:38;;;;;;;16.00;4.07;;;;;;;12.05;100.00;100583.00;5058128;28;20048;-78
2023/04/14 08:33:04;;;;;;;14.15;3.80;;;;;;;12.04;100.00;100578.63;5064680;28;20048;-75
2023/04/14 08:35:31;;;;;;;9.25;2.70;;;;;;;12.16;100.00;100580.91;5062902;28;20052;-75
2023/04/14 08:38:07;;;;;;;9.25;2.38;;;;;;;12.21;100.00;100574.91;5061117;28;20049;-78
2023/04/14 08:40:39;;;;;;;10.00;2.35;;;;;;;12.27;100.00;100576.03;5067387;28;20052;-74
2023/04/14 08:43:06;;;;;;;12.27;3.05;;;;;;;12.43;100.00;100576.25;5064809;28;20101;-77
2023/04/14 08:45:34;;;;;;;14.07;2.83;;;;;;;12.50;100.00;100578.97;5067672;28;20057;-75
2023/04/14 08:48:02;;;;;;;13.45;2.65;;;;;;;12.61;100.00;100577.63;5068957;28;20123;-75
2023/04/14 08:50:36;;;;;;;7.43;1.77;;;;;;;12.59;100.00;100579.25;5073639;28;20102;-78
2023/04/14 08:53:07;;;;;;;8.48;2.60;;;;;;;12.76;100.00;100584.59;5064812;28;20503;-78
2023/04/14 08:55:35;;;;;;;12.50;3.03;;;;;;;12.83;100.00;100580.94;5062165;28;20046;-79
2023/04/14 08:58:03;;;;;;;14.43;2.60;;;;;;;12.88;100.00;100581.28;5054775;28;20053;-76
2023/04/14 09:00:30;;;;;;;8.15;2.65;;;;;;;13.02;100.00;100585.13;5067001;28;20809;-74
2023/04/14 09:02:57;;;;;;;11.50;2.83;;;;;;;13.14;100.00;100574.22;5063671;28;20055;-78
2023/04/14 09:05:24;;;;;;;14.75;3.75;;;;;;;13.20;100.00;100569.78;5060782;28;20053;-74
2023/04/14 09:07:52;;;;;;;14.82;2.75;;;;;;;13.32;100.00;100571.16;5065557;28;20131;-80
2023/04/14 09:10:21;;;;;;;14.20;3.60;;;;;;;13.42;100.00;100567.44;5061696;28;20567;-74
2023/04/14 09:12:48;;;;;;;13.70;3.05;;;;;;;13.52;100.00;100563.72;5060891;28;20135;-80
2023/04/14 09:15:15;;;;;;;13.82;3.42;;;;;;;13.61;100.00;100566.78;5061289;28;20055;-74
2023/04/14 09:17:42;;;;;;;15.98;3.25;;;;;;;13.67;100.00;100557.53;5058499;28;20501;-75
2023/04/14 09:20:10;;;;;;;17.08;3.53;;;;;;;13.80;100.00;100566.06;5064336;28;20442;-76
2023/04/14 09:22:57;;;;;;;14.30;2.85;;;;;;;13.85;100.00;100569.16;5065504;28;20056;-77
2023/04/14 09:25:24;;;;;;;12.65;2.30;;;;;;;13.97;100.00;100568.53;5059018;28;20055;-77
2023/04/14 09:27:50;;;;;;;10.63;2.30;;;;;;;14.06;97.59;100566.00;5067310;28;20056;-75
2023/04/14 09:30:17;;;;;;;10.45;1.50;;;;;;;14.00;96.38;100562.13;5054155;28;20139;-75
2023/04/14 09:32:44;;;;;;;4.30;1.98;;;;;;;14.15;97.51;100557.91;5056755;28;20474;-75
2023/04/14 09:35:15;;;;;;;7.43;2.03;;;;;;;14.28;97.87;100560.88;5066257;28;20144;-74
2023/04/14 09:37:43;;;;;;;6.15;1.27;;;;;;;14.29;95.53;100557.66;5057711;28;20056;-74
2023/04/14 09:40:25;;;;;;;9.90;2.58;;;;;;;14.44;99.97;100555.38;5054889;28;20059;-76
2023/04/14 09:42:53;;;;;;;6.10;2.08;;;;;;;14.53;98.98;100556.41;5055775;28;20045;-74
2023/04/14 09:45:19;;;;;;;13.18;3.03;;;;;;;14.67;99.41;100553.34;5060836;28;20051;-75
2023/04/14 09:47:46;;;;;;;5.93;1.75;;;;;;;14.64;93.64;100553.38;5060543;28;20055;-75
2023/04/14 09:50:12;;;;;;;8.27;2.88;;;;;;;14.81;97.82;100555.81;5058529;28;20053;-80
2023/04/14 09:52:47;;;;;;;19.05;3.05;;;;;;;14.91;100.00;100556.81;5060455;28;20494;-75
2023/04/14 09:55:15;;;;;;;13.65;2.97;;;;;;;15.15;99.50;100553.50;5064437;28;20068;-73
2023/04/14 09:57:43;;;;;;;10.48;3.25;;;;;;;15.38;100.00;100547.81;5063424;28;20048;-74
2023/04/14 10:00:20;;;;;;;7.03;2.95;;;;;;;15.68;99.42;100543.13;5061196;28;20055;-73
2023/04/14 10:02:49;;;;;;;13.32;3.47;;;;;;;15.99;99.32;100544.34;5052709;28;20079;-79
2023/04/14 10:05:20;;;;;;;9.93;2.53;;;;;;;16.21;94.64;100543.34;5056559;28;20068;-75
2023/04/14 10:07:46;;;;;;;7.20;1.52;;;;;;;15.91;79.86;100548.50;5062132;28;20155;-77
2023/04/14 10:10:13;;;;;;;9.38;2.45;;;;;;;15.72;78.48;100547.38;5057751;28;20060;-79
2023/04/14 10:12:44;;;;;;;6.13;1.80;;;;;;;15.36;80.29;100539.09;5060336;28;20048;-75
2023/04/14 10:15:16;;;;;;;6.95;1.75;;;;;;;15.19;80.58;100547.84;5054709;28;20049;-74
2023/04/14 10:17:42;;;;;;;10.30;2.88;;;;;;;15.40;85.80;100531.41;5061728;28;20044;-74
2023/04/14 10:20:09;;;;;;;7.90;2.28;;;;;;;15.51;82.52;100525.59;5063767;28;20048;-74
2023/04/14 10:22:36;;;;;;;12.63;2.42;;;;;;;15.79;87.74;100519.31;5058576;28;20056;-75
2023/04/14 10:25:08;;;;;;;7.07;1.50;;;;;;;15.61;79.82;100515.41;5062781;28;20051;-76
2023/04/14 10:27:34;;;;;;;11.13;2.25;;;;;;;15.63;80.70;100512.97;5063290;28;20430;-74
2023/04/14 10:30:01;;;;;;;13.73;2.67;;;;;;;15.81;88.09;100504.94;5059024;28;20064;-74
2023/04/14 10:32:35;;;;;;;11.70;2.95;;;;;;;16.02;87.29;100501.56;5058684;28;20052;-75
2023/04/14 10:35:04;;;;;;;12.05;3.08;;;;;;;16.30;82.84;100503.63;5061465;28;20060;-76
2023/04/14 10:37:34;;;;;;;11.02;2.85;;;;;;;16.47;83.41;100499.56;5059662;28;20099;-74
2023/04/14 10:40:08;;;;;;;10.18;2.83;;;;;;;16.75;84.58;100496.75;5061156;28;20049;-77
2023/04/14 10:42:54;;;;;;;13.75;2.33;;;;;;;16.76;70.42;100503.09;5063990;28;20040;-77
2023/04/14 10:45:21;;;;;;;8.77;2.00;;;;;;;16.70;73.15;100485.31;5066319;28;20052;-74
2023/04/14 10:47:48;;;;;;;12.45;2.05;;;;;;;16.79;66.99;100479.84;5060938;28;20454;-80
2023/04/14 10:50:17;;;;;;;12.38;2.42;;;;;;;16.96;66.84;100484.13;5052294;28;20045;-77
2023/04/14 10:52:53;;;;;;;6.47;1.83;;;;;;;16.45;63.01;100476.88;5060104;28;20765;-77
2023/04/14 10:55:27;;;;;;;12.60;2.80;;;;;;;16.48;70.44;100484.38;5054529;28;20079;-78
2023/04/14 10:58:05;;;;;;;10.93;2.95;;;;;;;16.59;72.21;100476.47;5058215;28;20131;-74
2023/04/14 11:00:36;;;;;;;12.10;2.25;;;;;;;16.53;71.67;100479.03;5065200;28;20155;-76
2023/04/14 11:03:07;;;;;;;14.57;2.85;;;;;;;16.50;73.99;100462.38;5065413;28;20044;-78
2023/04/14 11:05:34;;;;;;;13.52;2.78;;;;;;;16.59;74.64;100470.88;5059584;28;20094;-76
2023/04/14 11:08:15;;;;;;;13.05;2.20;;;;;;;16.41;68.67;100467.78;5062231;28;20071;-78
2023/04/14 11:11:00;;;;;;;13.77;2.22;;;;;;;16.22;70.28;100463.94;5061547;28;20063;-76
2023/04/14 11:13:28;;;;;;;8.80;2.15;;;;;;;16.23;73.01;100462.72;5058660;28;20044;-79
2023/04/14 11:16:02;;;;;;;12.32;2.80;;;;;;;16.25;71.25;100457.47;5058055;28;20151;-77
2023/04/14 11:18:29;;;;;;;8.93;2.30;;;;;;;16.38;70.58;100465.88;5054408;28;20048;-76
2023/04/14 11:21:05;;;;;;;8.73;2.25;;;;;;;16.50;76.08;100456.81;5062429;28;20041;-77
2023/04/14 11:23:33;;;;;;;19.75;3.15;;;;;;;16.70;76.86;100457.38;5059121;28;20044;-79
2023/04/14 11:26:00;;;;;;;10.10;2.33;;;;;;;16.80;76.32;100443.09;5064302;28;20050;-79